Time;durP1;ratioP1;P1;durP2;ratioP2;P2;SDS_P1;SDS_P2;PMS_P1;PMS_P2;Temp;Humidity;BMP_temperature;BMP_pressure;BME280_temperature;BME280_humidity;BME280_pressure;Samples;Min_cycle;Max_cycle;Signal;HPM_P1;HPM_P2
2021/12/12 00:00:34;;;;;;;19.97;6.10;;;5.80;99.90;;;;;;5065158;28;20192;-63
2021/12/12 00:03:14;;;;;;;20.90;6.43;;;5.80;99.90;;;;;;5067599;28;20757;-63
2021/12/12 00:05:46;;;;;;;18.57;5.90;;;5.80;99.90;;;;;;5092122;28;20679;-63
2021/12/12 00:08:17;;;;;;;25.83;6.60;;;5.80;99.90;;;;;;5053179;28;20192;-63
2021/12/12 00:10:49;;;;;;;15.23;6.00;;;5.80;99.90;;;;;;5078902;28;20219;-63
2021/12/12 00:13:20;;;;;;;18.37;6.03;;;5.80;99.90;;;;;;5069575;28;20261;-63
2021/12/12 00:15:50;;;;;;;24.23;6.40;;;5.80;99.90;;;;;;5090076;28;20200;-63
2021/12/12 00:18:19;;;;;;;22.70;6.57;;;5.80;99.90;;;;;;5070770;28;20231;-63
2021/12/12 00:20:49;;;;;;;20.60;7.00;;;5.80;99.90;;;;;;5072854;28;20199;-63
2021/12/12 00:23:19;;;;;;;18.27;6.37;;;5.80;99.90;;;;;;5078036;28;20204;-63
2021/12/12 00:25:54;;;;;;;20.30;6.63;;;5.80;99.90;;;;;;5074454;28;20199;-63
2021/12/12 00:28:23;;;;;;;22.50;7.30;;;5.80;99.90;;;;;;5068227;28;20224;-63
2021/12/12 00:30:56;;;;;;;30.93;7.20;;;5.80;99.90;;;;;;5069355;28;20633;-63
2021/12/12 00:33:25;;;;;;;25.37;7.80;;;5.80;99.90;;;;;;5068876;28;20676;-63
2021/12/12 00:35:54;;;;;;;19.13;6.73;;;5.80;99.90;;;;;;5065525;28;20188;-63
2021/12/12 00:38:26;;;;;;;26.67;8.33;;;5.80;99.90;;;;;;5068414;28;20215;-63
2021/12/12 00:40:58;;;;;;;28.47;7.27;;;5.80;99.90;;;;;;5071039;28;20262;-63
2021/12/12 00:43:34;;;;;;;25.07;6.73;;;5.80;99.90;;;;;;5068984;28;20671;-63
2021/12/12 00:46:09;;;;;;;22.23;6.63;;;5.80;99.90;;;;;;5069436;28;20216;-63
2021/12/12 00:48:40;;;;;;;18.70;7.47;;;5.90;99.90;;;;;;5067715;28;20253;-63
2021/12/12 00:51:12;;;;;;;20.43;6.80;;;5.80;99.90;;;;;;5067394;28;20289;-63
2021/12/12 00:53:43;;;;;;;26.17;7.27;;;5.90;99.90;;;;;;5063524;28;20738;-63
2021/12/12 00:56:13;;;;;;;18.90;6.83;;;5.80;99.90;;;;;;5086940;28;20188;-63
2021/12/12 00:58:42;;;;;;;22.93;7.33;;;5.90;99.90;;;;;;5062971;28;20607;-63
2021/12/12 01:01:18;;;;;;;19.97;7.70;;;5.90;99.90;;;;;;5065166;28;20196;-63
2021/12/12 01:04:28;;;;;;;21.03;7.00;;;5.90;99.90;;;;;;5069400;28;20195;-63
2021/12/12 01:07:37;;;;;;;32.17;7.17;;;5.90;99.90;;;;;;5066867;28;20321;-63
2021/12/12 01:10:13;;;;;;;26.30;7.10;;;5.90;99.90;;;;;;5068325;28;20545;-63
2021/12/12 01:12:44;;;;;;;24.07;6.97;;;5.90;99.90;;;;;;5071697;28;20291;-64
2021/12/12 01:15:16;;;;;;;18.53;6.63;;;5.90;99.90;;;;;;5072518;28;20206;-63
2021/12/12 01:17:49;;;;;;;22.10;6.40;;;6.00;99.90;;;;;;5071672;28;20196;-63
2021/12/12 01:20:24;;;;;;;22.60;7.00;;;6.00;99.90;;;;;;5067515;28;20682;-63
2021/12/12 01:22:55;;;;;;;19.37;6.20;;;6.00;99.90;;;;;;5073841;28;20232;-64
2021/12/12 01:25:27;;;;;;;17.40;6.63;;;6.10;99.90;;;;;;5069388;28;20196;-63
2021/12/12 01:27:57;;;;;;;18.67;6.03;;;6.10;99.90;;;;;;5082359;28;21414;-63
2021/12/12 01:30:27;;;;;;;21.50;6.23;;;6.10;99.90;;;;;;5066775;28;20269;-63
2021/12/12 01:32:58;;;;;;;27.73;6.40;;;6.10;99.90;;;;;;5075591;28;20207;-63
2021/12/12 01:35:27;;;;;;;14.60;5.67;;;6.10;99.90;;;;;;5065465;28;20285;-63
2021/12/12 01:40:46;;;;;;;18.80;5.77;;;6.10;99.90;;;;;;5071378;28;20255;-63
2021/12/12 01:43:21;;;;;;;24.00;6.27;;;6.10;99.90;;;;;;5068810;28;20262;-63
2021/12/12 01:45:54;;;;;;;24.90;5.93;;;6.10;99.90;;;;;;5068624;28;20219;-63
2021/12/12 01:48:27;;;;;;;23.57;5.97;;;6.20;99.90;;;;;;5068113;28;20275;-63
2021/12/12 01:51:01;;;;;;;14.63;6.00;;;6.20;99.90;;;;;;5064166;28;20345;-63
2021/12/12 01:53:32;;;;;;;14.50;5.57;;;6.20;99.90;;;;;;5066891;28;20653;-63
2021/12/12 01:56:06;;;;;;;27.90;7.13;;;6.20;99.90;;;;;;5065487;28;20660;-63
2021/12/12 01:58:38;;;;;;;20.27;6.67;;;6.20;99.90;;;;;;5066467;28;20931;-64
2021/12/12 02:01:11;;;;;;;25.30;7.20;;;6.30;99.90;;;;;;5066059;28;20481;-63
2021/12/12 02:03:47;;;;;;;21.57;6.67;;;6.30;99.90;;;;;;5064005;28;20630;-63
2021/12/12 02:06:19;;;;;;;20.87;6.90;;;6.20;99.90;;;;;;5067345;28;20206;-63
2021/12/12 02:08:50;;;;;;;22.13;7.27;;;6.30;99.90;;;;;;5065982;28;20223;-63
2021/12/12 02:11:23;;;;;;;14.10;6.73;;;6.30;99.90;;;;;;5067040;28;20231;-63
2021/12/12 02:13:54;;;;;;;20.30;6.93;;;6.30;99.90;;;;;;5072968;28;20192;-63
2021/12/12 02:16:25;;;;;;;24.47;7.70;;;6.30;99.90;;;;;;5065740;28;20257;-63
2021/12/12 02:18:58;;;;;;;21.00;7.90;;;6.30;99.90;;;;;;5064540;28;20196;-63
2021/12/12 02:21:56;;;;;;;25.73;8.17;;;6.30;99.90;;;;;;5064399;28;20278;-64
2021/12/12 02:35:07;;;;;;;17.87;7.20;;;6.40;99.90;;;;;;5065450;28;20224;-63
2021/12/12 02:35:48;;;;;;;19.77;7.87;;;6.40;99.90;;;;;;5067294;28;20828;-63
2021/12/12 02:38:20;;;;;;;19.13;8.57;;;6.40;99.90;;;;;;5053168;28;20192;-63
2021/12/12 02:40:54;;;;;;;18.47;8.20;;;6.40;99.90;;;;;;5065739;28;20236;-63
2021/12/12 02:43:26;;;;;;;20.00;8.20;;;6.40;99.90;;;;;;5065185;28;20209;-63
2021/12/12 02:45:57;;;;;;;18.50;8.50;;;6.40;99.90;;;;;;5066581;28;20210;-63
2021/12/12 02:48:27;;;;;;;19.40;8.37;;;6.40;99.90;;;;;;5079767;28;20216;-63
2021/12/12 02:50:58;;;;;;;23.03;8.53;;;6.40;99.90;;;;;;5070985;28;20291;-63
2021/12/12 02:53:29;;;;;;;23.70;8.77;;;6.40;99.90;;;;;;5070837;28;20245;-63
2021/12/12 02:56:04;;;;;;;19.30;8.63;;;6.40;99.90;;;;;;5063468;28;20193;-63
2021/12/12 02:58:33;;;;;;;19.20;9.00;;;6.40;99.90;;;;;;5066912;28;20261;-63
2021/12/12 03:01:12;;;;;;;17.40;9.33;;;6.40;99.90;;;;;;5083277;28;20184;-63
2021/12/12 03:03:43;;;;;;;15.67;8.63;;;6.40;99.90;;;;;;5067488;28;20183;-63
2021/12/12 03:06:13;;;;;;;15.20;9.20;;;6.50;99.90;;;;;;5064793;28;20220;-63
2021/12/12 03:08:44;;;;;;;19.50;9.53;;;6.50;99.90;;;;;;5069579;28;20203;-63
2021/12/12 03:11:15;;;;;;;15.00;8.40;;;6.50;99.90;;;;;;5064389;28;20256;-63
2021/12/12 03:13:44;;;;;;;15.40;8.90;;;6.50;99.90;;;;;;5060594;28;20205;-63
2021/12/12 03:16:13;;;;;;;12.57;8.80;;;6.50;99.90;;;;;;5057980;28;20192;-63
2021/12/12 03:18:45;;;;;;;17.87;10.00;;;6.50;99.90;;;;;;5061010;28;20654;-63
2021/12/12 03:21:17;;;;;;;15.63;9.60;;;6.50;99.90;;;;;;5062555;28;20188;-63
2021/12/12 03:23:49;;;;;;;17.60;9.27;;;6.50;99.90;;;;;;5069777;28;20683;-63
2021/12/12 03:26:21;;;;;;;13.30;9.90;;;6.50;99.90;;;;;;5066926;28;20208;-64
2021/12/12 03:28:51;;;;;;;15.27;10.30;;;6.50;99.90;;;;;;5071163;28;20188;-63
2021/12/12 03:31:24;;;;;;;15.60;10.40;;;6.50;99.90;;;;;;5067968;28;20631;-63
2021/12/12 03:33:53;;;;;;;18.00;10.53;;;6.50;99.90;;;;;;5071120;28;20299;-63
2021/12/12 03:36:23;;;;;;;15.23;10.67;;;6.50;99.90;;;;;;5070329;28;20234;-63
2021/12/12 03:38:57;;;;;;;14.87;10.17;;;6.50;99.90;;;;;;5069964;28;20208;-63
2021/12/12 03:41:30;;;;;;;15.57;10.80;;;6.50;99.90;;;;;;5083986;28;20195;-64
2021/12/12 03:44:04;;;;;;;20.40;11.63;;;6.50;99.90;;;;;;5073350;28;20599;-63
2021/12/12 03:46:34;;;;;;;22.07;11.83;;;6.50;99.90;;;;;;5073201;28;20227;-63
2021/12/12 03:49:03;;;;;;;21.23;12.70;;;6.50;99.90;;;;;;5070037;28;20211;-63
2021/12/12 03:51:31;;;;;;;22.60;13.80;;;6.50;99.90;;;;;;5069240;28;20298;-63
2021/12/12 03:54:00;;;;;;;21.17;13.27;;;6.50;99.90;;;;;;5062057;28;20288;-64
2021/12/12 03:56:30;;;;;;;22.10;13.77;;;6.50;99.90;;;;;;5071407;28;20235;-63
2021/12/12 03:58:59;;;;;;;20.23;13.07;;;6.50;99.90;;;;;;5070460;28;20652;-63
2021/12/12 04:01:30;;;;;;;22.43;13.20;;;6.60;99.90;;;;;;5064039;28;20648;-64
2021/12/12 04:04:05;;;;;;;21.30;13.00;;;6.60;99.90;;;;;;5068492;28;20199;-63
2021/12/12 04:06:34;;;;;;;23.97;13.67;;;6.60;99.90;;;;;;5083833;28;20198;-63
2021/12/12 04:09:04;;;;;;;23.83;13.57;;;6.60;99.90;;;;;;5072060;28;20192;-63
2021/12/12 04:11:38;;;;;;;24.87;13.87;;;6.60;99.90;;;;;;5070048;28;20673;-64
2021/12/12 04:14:07;;;;;;;20.23;13.00;;;6.60;99.90;;;;;;5070651;28;20195;-63
2021/12/12 04:16:38;;;;;;;17.97;12.50;;;6.60;99.90;;;;;;5070205;28;20235;-63
2021/12/12 04:19:08;;;;;;;19.43;11.73;;;6.60;99.90;;;;;;5068051;28;20668;-63
2021/12/12 04:21:38;;;;;;;17.23;11.50;;;6.60;99.90;;;;;;5066112;28;20200;-63
2021/12/12 04:24:10;;;;;;;18.17;11.90;;;6.60;99.90;;;;;;5072854;28;20218;-64
2021/12/12 04:26:43;;;;;;;18.20;11.47;;;6.60;99.90;;;;;;5068614;28;20727;-63
2021/12/12 04:29:14;;;;;;;16.23;11.23;;;6.60;99.90;;;;;;5070382;28;20196;-63
2021/12/12 04:31:47;;;;;;;21.03;11.83;;;6.60;99.90;;;;;;5067753;28;20925;-63
2021/12/12 04:34:17;;;;;;;17.40;11.97;;;6.60;99.90;;;;;;5074313;28;20184;-63
2021/12/12 04:36:48;;;;;;;19.37;12.13;;;6.70;99.90;;;;;;5062345;28;20205;-63
2021/12/12 04:39:19;;;;;;;18.37;12.33;;;6.60;99.90;;;;;;5068116;28;20255;-63
2021/12/12 04:41:51;;;;;;;17.70;12.20;;;6.60;99.90;;;;;;5069227;28;20267;-63
2021/12/12 04:44:22;;;;;;;18.77;12.60;;;6.70;99.90;;;;;;5068319;28;20749;-63
2021/12/12 04:49:57;;;;;;;22.43;13.00;;;6.70;99.90;;;;;;5055172;28;20219;-63
2021/12/12 04:52:33;;;;;;;18.30;11.33;;;6.70;99.90;;;;;;5082895;28;20355;-64
2021/12/12 04:55:06;;;;;;;16.67;11.97;;;6.70;99.90;;;;;;5070144;28;20192;-63
2021/12/12 04:57:43;;;;;;;18.37;11.90;;;6.80;99.90;;;;;;5069533;28;20208;-63
2021/12/12 05:00:17;;;;;;;15.50;12.27;;;6.80;99.90;;;;;;5068683;28;21411;-63
2021/12/12 05:02:55;;;;;;;18.03;11.90;;;6.80;99.90;;;;;;5066134;28;20808;-64
2021/12/12 05:05:29;;;;;;;20.60;11.93;;;6.80;99.90;;;;;;5067635;28;20265;-63
2021/12/12 05:08:04;;;;;;;18.57;12.07;;;6.80;99.90;;;;;;5074523;28;20208;-63
2021/12/12 05:10:39;;;;;;;16.93;11.53;;;6.80;99.90;;;;;;5066469;28;20217;-63
2021/12/12 05:13:16;;;;;;;14.60;11.30;;;6.80;99.90;;;;;;5068367;28;20210;-63
2021/12/12 05:15:48;;;;;;;15.13;10.83;;;6.80;99.90;;;;;;5067166;28;20192;-64
2021/12/12 05:18:22;;;;;;;16.67;11.40;;;6.80;99.90;;;;;;5063258;28;20623;-63
2021/12/12 05:20:59;;;;;;;15.50;11.00;;;6.80;99.90;;;;;;5069850;28;20780;-64
2021/12/12 05:23:30;;;;;;;16.77;11.03;;;6.80;99.90;;;;;;5066143;28;20249;-63
2021/12/12 05:26:01;;;;;;;13.53;10.73;;;6.80;99.90;;;;;;5068414;28;20790;-63
2021/12/12 05:28:34;;;;;;;17.57;10.67;;;6.80;99.90;;;;;;5069430;28;20243;-63
2021/12/12 05:31:07;;;;;;;15.97;10.70;;;6.80;99.90;;;;;;5067816;28;20199;-63
2021/12/12 05:33:37;;;;;;;15.07;10.17;;;6.80;99.90;;;;;;5082976;28;20230;-64
2021/12/12 05:36:08;;;;;;;17.27;11.10;;;6.80;99.90;;;;;;5073091;28;20200;-63
2021/12/12 05:38:36;;;;;;;17.37;11.43;;;6.80;99.90;;;;;;5068102;28;20198;-63
2021/12/12 05:41:06;;;;;;;20.17;11.70;;;6.80;99.90;;;;;;5068279;28;20262;-64
2021/12/12 05:43:37;;;;;;;16.10;10.90;;;6.80;99.90;;;;;;5068114;28;20214;-63
2021/12/12 05:46:07;;;;;;;17.77;11.53;;;6.80;99.90;;;;;;5067626;28;20239;-63
2021/12/12 05:48:35;;;;;;;17.50;11.27;;;6.90;99.90;;;;;;5070364;28;20289;-64
2021/12/12 05:51:04;;;;;;;24.03;12.00;;;6.90;99.90;;;;;;5065793;28;20196;-64
2021/12/12 05:53:33;;;;;;;22.30;11.90;;;6.90;99.90;;;;;;5077022;28;20638;-63
2021/12/12 05:56:01;;;;;;;25.43;12.60;;;6.90;99.90;;;;;;5081804;28;20632;-63
2021/12/12 05:58:31;;;;;;;22.27;12.63;;;6.90;99.90;;;;;;5065918;28;20223;-63
2021/12/12 06:01:04;;;;;;;27.70;13.17;;;6.90;99.90;;;;;;5063301;28;20275;-63
2021/12/12 06:03:37;;;;;;;25.17;12.87;;;6.90;99.90;;;;;;5066887;28;20200;-64
2021/12/12 06:06:09;;;;;;;23.77;13.83;;;6.90;99.90;;;;;;5090189;28;20181;-63
2021/12/12 06:08:37;;;;;;;27.93;14.03;;;6.90;99.90;;;;;;5066770;28;20295;-63
2021/12/12 06:11:07;;;;;;;28.57;14.53;;;7.00;99.90;;;;;;5077343;28;20660;-63
2021/12/12 06:13:37;;;;;;;32.97;14.43;;;6.90;99.90;;;;;;5067808;28;20228;-63
2021/12/12 06:16:09;;;;;;;27.73;14.87;;;6.90;99.90;;;;;;5067547;28;20215;-63
2021/12/12 06:18:39;;;;;;;31.27;15.67;;;6.90;99.90;;;;;;5066804;28;20268;-64
2021/12/12 06:21:10;;;;;;;35.57;15.50;;;7.00;99.90;;;;;;5067661;28;20196;-63
2021/12/12 06:23:39;;;;;;;32.67;14.50;;;7.00;99.90;;;;;;5070027;28;20196;-64
2021/12/12 06:26:08;;;;;;;31.07;15.20;;;7.00;99.90;;;;;;5069024;28;20191;-63
2021/12/12 06:28:40;;;;;;;35.73;16.40;;;7.00;99.90;;;;;;5065032;28;20199;-63
2021/12/12 06:31:11;;;;;;;42.27;16.67;;;7.00;99.90;;;;;;5066572;28;20204;-62
2021/12/12 06:33:41;;;;;;;36.30;16.03;;;7.00;99.90;;;;;;5068056;28;20208;-63
2021/12/12 06:36:13;;;;;;;38.40;17.00;;;7.00;99.90;;;;;;5063886;28;20188;-63
2021/12/12 06:38:45;;;;;;;40.23;16.47;;;7.00;99.90;;;;;;5066876;28;20204;-64
2021/12/12 06:41:15;;;;;;;34.20;16.67;;;7.10;99.90;;;;;;5065854;28;20815;-63
2021/12/12 06:43:45;;;;;;;43.97;15.60;;;7.10;99.90;;;;;;5063850;28;20188;-63
2021/12/12 06:46:16;;;;;;;44.50;20.43;;;7.10;99.90;;;;;;5063180;28;20270;-63
2021/12/12 06:48:46;;;;;;;39.37;17.67;;;7.20;99.90;;;;;;5063041;28;20200;-63
2021/12/12 06:51:15;;;;;;;46.23;18.27;;;7.10;99.90;;;;;;5064306;28;20200;-63
2021/12/12 06:53:47;;;;;;;37.27;16.63;;;7.10;99.90;;;;;;5059922;28;20274;-63
2021/12/12 06:56:18;;;;;;;74.03;30.67;;;7.20;99.90;;;;;;5065557;28;20776;-63
2021/12/12 06:58:48;;;;;;;109.80;47.97;;;7.20;99.90;;;;;;5064246;28;20196;-63
2021/12/12 07:01:24;;;;;;;68.13;31.30;;;7.20;99.90;;;;;;5066810;28;20658;-63
2021/12/12 07:03:54;;;;;;;57.40;24.73;;;7.20;99.90;;;;;;5067111;28;20188;-63
2021/12/12 07:06:25;;;;;;;50.87;19.03;;;7.30;99.90;;;;;;5070447;28;20188;-63
2021/12/12 07:08:58;;;;;;;52.43;17.80;;;7.30;99.90;;;;;;5065281;28;20198;-63
2021/12/12 07:11:28;;;;;;;50.17;21.77;;;7.30;99.90;;;;;;5065463;28;20246;-63
2021/12/12 07:13:57;;;;;;;51.30;20.47;;;7.30;99.90;;;;;;5065425;28;20266;-64
2021/12/12 07:16:28;;;;;;;48.93;20.73;;;7.40;99.90;;;;;;5064525;28;20258;-63
2021/12/12 07:18:57;;;;;;;51.43;18.27;;;7.40;99.90;;;;;;5066496;28;20208;-63
2021/12/12 07:21:28;;;;;;;48.77;17.70;;;7.40;99.90;;;;;;5066004;28;20227;-63
2021/12/12 07:23:59;;;;;;;44.00;18.50;;;7.40;99.90;;;;;;5076489;28;20196;-63
2021/12/12 07:26:30;;;;;;;55.77;17.73;;;7.40;99.90;;;;;;5069492;28;20242;-63
2021/12/12 07:29:00;;;;;;;45.43;17.90;;;7.40;99.90;;;;;;5065763;28;21159;-63
2021/12/12 07:31:33;;;;;;;41.77;16.50;;;7.40;99.90;;;;;;5071216;28;20218;-63
2021/12/12 07:34:04;;;;;;;47.77;16.53;;;7.40;99.90;;;;;;5063014;28;20220;-63
2021/12/12 07:36:35;;;;;;;45.97;17.47;;;7.40;99.90;;;;;;5064223;28;20196;-63
2021/12/12 07:39:07;;;;;;;50.60;18.73;;;7.50;99.90;;;;;;5064039;28;20176;-63
2021/12/12 07:41:37;;;;;;;56.87;18.17;;;7.50;99.90;;;;;;5064653;28;20680;-63
2021/12/12 07:44:08;;;;;;;48.07;17.67;;;7.50;99.90;;;;;;5071419;28;20195;-64
2021/12/12 07:46:45;;;;;;;51.70;19.23;;;7.50;99.90;;;;;;5068864;28;20632;-64
2021/12/12 07:49:14;;;;;;;59.37;19.83;;;7.60;99.90;;;;;;5077518;28;20195;-64
2021/12/12 07:51:43;;;;;;;63.77;20.90;;;7.60;99.90;;;;;;5069453;28;20254;-64
2021/12/12 07:54:12;;;;;;;61.83;20.00;;;7.60;99.90;;;;;;5066606;28;20201;-63
2021/12/12 07:56:43;;;;;;;52.10;18.53;;;7.60;99.90;;;;;;5063335;28;20656;-64
2021/12/12 07:59:14;;;;;;;49.73;18.10;;;7.60;99.90;;;;;;5064298;28;20188;-63
2021/12/12 08:01:46;;;;;;;69.17;28.27;;;7.60;99.90;;;;;;5068373;28;20368;-64
2021/12/12 08:04:17;;;;;;;49.07;18.60;;;7.60;99.90;;;;;;5077607;28;20203;-63
2021/12/12 08:06:46;;;;;;;51.43;18.83;;;7.60;99.90;;;;;;5066459;28;20652;-64
2021/12/12 08:09:15;;;;;;;60.03;21.03;;;7.70;99.90;;;;;;5063836;28;20200;-64
2021/12/12 08:11:45;;;;;;;49.80;18.07;;;7.70;99.90;;;;;;5070494;28;20196;-63
2021/12/12 08:14:19;;;;;;;50.20;18.07;;;7.70;99.90;;;;;;5062166;28;20235;-63
2021/12/12 08:16:51;;;;;;;47.87;18.20;;;7.70;99.90;;;;;;5069106;28;20242;-64
2021/12/12 08:19:22;;;;;;;43.80;17.03;;;7.70;99.90;;;;;;5068993;28;20616;-63
2021/12/12 08:21:53;;;;;;;38.33;16.20;;;7.70;99.90;;;;;;5072652;28;20195;-64
2021/12/12 08:24:22;;;;;;;53.60;17.83;;;7.80;99.90;;;;;;5069200;28;20751;-64
2021/12/12 08:26:51;;;;;;;50.10;17.90;;;7.80;99.90;;;;;;5068750;28;20279;-63
2021/12/12 08:29:21;;;;;;;47.30;16.43;;;7.80;99.90;;;;;;5066237;28;20629;-63
2021/12/12 08:31:52;;;;;;;47.63;17.30;;;7.80;99.90;;;;;;5069373;28;20278;-64
2021/12/12 08:34:21;;;;;;;38.97;16.43;;;7.80;99.90;;;;;;5069479;28;20651;-63
2021/12/12 08:36:54;;;;;;;43.37;15.50;;;7.90;99.90;;;;;;5067481;28;20630;-64
2021/12/12 08:39:25;;;;;;;35.83;15.70;;;7.90;99.90;;;;;;5072450;28;20245;-64
2021/12/12 08:41:55;;;;;;;37.27;15.80;;;7.90;99.90;;;;;;5070485;28;20234;-64
2021/12/12 08:44:24;;;;;;;48.40;16.67;;;7.90;99.90;;;;;;5068759;28;20188;-63
2021/12/12 08:46:57;;;;;;;36.67;16.80;;;7.90;99.90;;;;;;5069925;28;20680;-64
2021/12/12 08:49:30;;;;;;;43.10;16.73;;;7.90;99.90;;;;;;5070688;28;20264;-64
2021/12/12 08:52:06;;;;;;;39.33;16.83;;;7.90;99.90;;;;;;5083094;28;20607;-64
2021/12/12 08:54:37;;;;;;;49.03;17.13;;;7.90;99.90;;;;;;5068223;28;20215;-63
2021/12/12 08:57:12;;;;;;;43.03;16.60;;;8.00;99.90;;;;;;5067952;28;20200;-64
2021/12/12 08:59:46;;;;;;;45.53;17.53;;;8.00;99.90;;;;;;5071337;28;20610;-63
2021/12/12 09:02:18;;;;;;;45.53;16.47;;;8.00;99.90;;;;;;5065724;28;20228;-63
2021/12/12 09:04:52;;;;;;;43.07;16.40;;;8.00;99.90;;;;;;5071276;28;20672;-64
2021/12/12 09:07:25;;;;;;;56.13;29.10;;;8.00;99.90;;;;;;5065312;28;20200;-64
2021/12/12 09:10:02;;;;;;;65.47;34.37;;;8.00;99.90;;;;;;5065942;28;20734;-64
2021/12/12 09:12:35;;;;;;;50.93;24.23;;;8.00;99.90;;;;;;5067333;28;20206;-64
2021/12/12 09:15:11;;;;;;;58.80;28.37;;;8.00;99.90;;;;;;5067866;28;20686;-64
2021/12/12 09:17:46;;;;;;;48.90;22.37;;;8.00;99.90;;;;;;5067240;28;20815;-63
2021/12/12 09:20:20;;;;;;;49.87;22.30;;;8.10;99.90;;;;;;5079922;28;20648;-64
2021/12/12 09:23:00;;;;;;;51.60;22.23;;;8.10;99.90;;;;;;5066948;28;20264;-64
2021/12/12 09:25:37;;;;;;;39.53;17.77;;;8.10;99.90;;;;;;5062909;28;20246;-63
2021/12/12 09:28:13;;;;;;;43.53;20.87;;;8.10;99.90;;;;;;5063677;28;20200;-64
2021/12/12 09:30:42;;;;;;;46.90;20.30;;;8.20;99.90;;;;;;5067890;28;20831;-63
2021/12/12 09:33:20;;;;;;;47.40;22.53;;;8.20;99.90;;;;;;5070714;28;20184;-64
2021/12/12 09:35:53;;;;;;;52.47;24.90;;;8.20;99.90;;;;;;5070373;28;20738;-63
2021/12/12 09:38:29;;;;;;;40.80;19.50;;;8.20;99.90;;;;;;5069684;28;20815;-64
2021/12/12 09:41:12;;;;;;;44.63;18.67;;;8.20;99.90;;;;;;5071352;28;20227;-64
2021/12/12 09:43:58;;;;;;;44.67;21.13;;;8.20;99.90;;;;;;5072587;28;20610;-64
2021/12/12 09:46:57;;;;;;;46.07;19.97;;;8.30;99.90;;;;;;5069319;28;20811;-64
2021/12/12 09:53:12;;;;;;;44.50;20.47;;;8.30;99.90;;;;;;5066276;28;20196;-64
2021/12/12 09:55:49;;;;;;;53.60;23.53;;;8.30;99.90;;;;;;5064014;28;20265;-64
2021/12/12 09:58:28;;;;;;;48.50;19.90;;;8.30;99.90;;;;;;5069181;28;20266;-63
2021/12/12 10:01:01;;;;;;;55.97;20.63;;;8.30;99.90;;;;;;5068843;28;20200;-64
2021/12/12 10:03:45;;;;;;;51.97;21.10;;;8.40;99.90;;;;;;5065970;28;20209;-64
2021/12/12 10:06:23;;;;;;;53.10;21.80;;;8.40;99.90;;;;;;5068888;28;20222;-64
2021/12/12 10:09:00;;;;;;;65.93;30.13;;;8.40;99.90;;;;;;5068180;28;20668;-64
2021/12/12 10:11:38;;;;;;;53.53;22.93;;;8.50;99.90;;;;;;5066744;28;20262;-64
2021/12/12 10:14:13;;;;;;;50.17;23.47;;;8.50;99.90;;;;;;5076160;28;20193;-64
2021/12/12 10:16:49;;;;;;;53.17;23.27;;;8.60;99.90;;;;;;5066112;28;20261;-64
2021/12/12 10:19:29;;;;;;;60.07;25.13;;;8.60;99.90;;;;;;5068003;28;20196;-64
2021/12/12 10:22:12;;;;;;;58.67;23.20;;;8.70;99.90;;;;;;5069193;28;20555;-64
2021/12/12 10:24:45;;;;;;;57.70;23.73;;;8.60;99.90;;;;;;5067326;28;20667;-64
2021/12/12 10:27:21;;;;;;;60.97;23.13;;;8.70;99.90;;;;;;5064251;28;20192;-64
2021/12/12 10:30:01;;;;;;;57.77;23.97;;;8.70;99.90;;;;;;5054487;28;20195;-64
2021/12/12 10:32:33;;;;;;;57.77;23.37;;;8.70;99.90;;;;;;5063819;28;20768;-64
2021/12/12 10:35:06;;;;;;;61.67;23.87;;;8.70;99.90;;;;;;5064318;28;20212;-64
2021/12/12 10:37:43;;;;;;;58.23;23.83;;;8.70;99.90;;;;;;5057833;28;20230;-64
2021/12/12 10:40:15;;;;;;;62.37;24.83;;;8.80;99.90;;;;;;5062099;28;20255;-64
2021/12/12 10:42:47;;;;;;;53.80;24.37;;;8.80;99.90;;;;;;5062935;28;20212;-64
2021/12/12 10:45:20;;;;;;;56.03;24.80;;;8.90;99.90;;;;;;5064297;28;20697;-64
2021/12/12 10:47:56;;;;;;;57.63;24.17;;;8.90;99.90;;;;;;5062811;28;20211;-64
2021/12/12 10:50:33;;;;;;;57.67;23.13;;;9.00;99.90;;;;;;5063454;28;20229;-64
2021/12/12 10:53:08;;;;;;;56.17;24.87;;;9.10;99.90;;;;;;5066406;28;20651;-64
2021/12/12 10:55:45;;;;;;;57.67;26.50;;;9.10;99.90;;;;;;5066562;28;20271;-65
2021/12/12 10:58:21;;;;;;;60.20;27.80;;;9.10;99.90;;;;;;5059470;28;20215;-64
2021/12/12 11:00:52;;;;;;;54.40;23.73;;;9.20;99.90;;;;;;5065270;28;20200;-64
2021/12/12 11:03:25;;;;;;;48.77;23.10;;;9.20;99.90;;;;;;5061865;28;20226;-64
2021/12/12 11:05:58;;;;;;;56.97;25.13;;;9.20;99.90;;;;;;5064152;28;20221;-64
2021/12/12 11:08:36;;;;;;;50.50;23.67;;;9.30;99.90;;;;;;5064571;28;20200;-64
2021/12/12 11:11:12;;;;;;;55.70;24.37;;;9.30;99.90;;;;;;5062460;28;20215;-63
2021/12/12 11:13:49;;;;;;;57.47;25.03;;;9.30;99.90;;;;;;5058918;28;20231;-64
2021/12/12 11:16:21;;;;;;;51.47;24.60;;;9.30;99.90;;;;;;5063137;28;20211;-64
2021/12/12 11:18:57;;;;;;;46.57;23.73;;;9.40;99.90;;;;;;5063191;28;20214;-64
2021/12/12 11:21:30;;;;;;;48.03;22.97;;;9.40;99.90;;;;;;5062465;28;20219;-64
2021/12/12 11:24:04;;;;;;;51.77;22.90;;;9.40;99.90;;;;;;5059822;28;20196;-64
2021/12/12 11:26:40;;;;;;;43.13;21.77;;;9.50;99.90;;;;;;5062587;28;20203;-64
2021/12/12 11:29:13;;;;;;;37.50;20.70;;;9.50;99.90;;;;;;5064379;28;20208;-64
2021/12/12 11:31:47;;;;;;;39.30;21.43;;;9.50;99.90;;;;;;5064186;28;20212;-64
2021/12/12 11:34:36;;;;;;;42.10;21.83;;;9.60;99.90;;;;;;5065202;28;20200;-64
2021/12/12 11:37:16;;;;;;;40.93;21.70;;;9.60;99.90;;;;;;5062702;28;20223;-64
2021/12/12 11:39:52;;;;;;;39.20;22.20;;;9.60;99.90;;;;;;5080479;28;20747;-64
2021/12/12 11:42:24;;;;;;;45.30;22.00;;;9.70;99.90;;;;;;5064665;28;20770;-64
2021/12/12 11:45:04;;;;;;;54.97;30.50;;;9.80;99.90;;;;;;5067131;28;20279;-64
2021/12/12 11:47:54;;;;;;;43.30;25.10;;;9.80;99.90;;;;;;5067533;28;20183;-64
2021/12/12 11:50:31;;;;;;;48.27;22.83;;;9.90;99.90;;;;;;5070181;28;20204;-64
2021/12/12 11:53:03;;;;;;;40.20;22.13;;;10.00;99.90;;;;;;5070571;28;21494;-64
2021/12/12 11:55:39;;;;;;;43.07;22.53;;;10.00;99.90;;;;;;5069904;28;20283;-64
2021/12/12 11:58:23;;;;;;;40.13;22.83;;;10.00;99.90;;;;;;5066797;28;20199;-63
2021/12/12 12:01:00;;;;;;;37.83;22.63;;;10.10;99.90;;;;;;5068393;28;20206;-64
2021/12/12 12:03:47;;;;;;;38.27;20.87;;;10.20;99.90;;;;;;5066775;28;20208;-64
2021/12/12 12:06:23;;;;;;;36.47;20.33;;;10.30;99.90;;;;;;5069148;28;20266;-64
2021/12/12 12:09:08;;;;;;;33.90;20.30;;;10.40;99.90;;;;;;5066793;28;20707;-64
2021/12/12 12:11:56;;;;;;;32.20;19.97;;;10.40;99.90;;;;;;5070686;28;20192;-64
2021/12/12 12:14:30;;;;;;;30.27;19.77;;;10.40;99.90;;;;;;5073374;28;20836;-64
2021/12/12 12:17:06;;;;;;;31.00;19.50;;;10.40;99.90;;;;;;5067877;28;20688;-64
2021/12/12 12:19:47;;;;;;;28.77;17.77;;;10.40;99.90;;;;;;5070155;28;20207;-64
2021/12/12 12:22:29;;;;;;;26.57;17.10;;;10.50;99.90;;;;;;5070504;28;20245;-64
2021/12/12 12:25:14;;;;;;;28.27;16.97;;;10.50;99.90;;;;;;5074771;28;20177;-64
2021/12/12 12:27:53;;;;;;;31.47;17.70;;;10.50;99.90;;;;;;5070948;28;20219;-64
2021/12/12 12:31:08;;;;;;;24.20;16.47;;;10.50;99.90;;;;;;5070890;28;20212;-64
2021/12/12 12:34:10;;;;;;;25.80;16.73;;;10.60;99.90;;;;;;5067304;28;20192;-64
2021/12/12 12:37:16;;;;;;;26.47;17.00;;;10.60;99.90;;;;;;5055667;28;20208;-64
2021/12/12 12:40:27;;;;;;;26.67;18.23;;;10.50;99.90;;;;;;5062428;28;20235;-64
2021/12/12 12:43:41;;;;;;;24.27;15.20;;;10.50;99.90;;;;;;5060870;28;20207;-63
2021/12/12 12:46:48;;;;;;;23.03;14.93;;;10.50;99.90;;;;;;5066806;28;20196;-64
2021/12/12 12:49:55;;;;;;;19.30;14.83;;;10.50;99.90;;;;;;5066578;28;20208;-64
2021/12/12 12:53:00;;;;;;;21.80;15.17;;;10.50;99.90;;;;;;5051350;28;20208;-64
2021/12/12 12:56:07;;;;;;;20.13;14.90;;;10.50;99.90;;;;;;5058002;28;20264;-64
2021/12/12 12:59:17;;;;;;;20.93;15.20;;;10.50;99.90;;;;;;5068525;28;20203;-64
2021/12/12 13:02:00;;;;;;;19.53;14.37;;;10.50;99.90;;;;;;5044363;28;20212;-64
2021/12/12 13:04:35;;;;;;;20.37;13.50;;;10.50;99.90;;;;;;5062657;28;20188;-64
2021/12/12 13:07:23;;;;;;;22.77;14.57;;;10.60;99.90;;;;;;5062682;28;20750;-64
2021/12/12 13:10:01;;;;;;;20.03;13.17;;;10.60;99.90;;;;;;5059902;28;20199;-64
2021/12/12 13:12:57;;;;;;;20.70;13.47;;;10.60;99.90;;;;;;5063609;28;20306;-64
2021/12/12 13:15:48;;;;;;;19.23;13.03;;;10.70;99.90;;;;;;5063031;28;20252;-64
2021/12/12 13:18:27;;;;;;;17.53;12.97;;;10.70;99.90;;;;;;5064249;28;20239;-64
2021/12/12 13:21:12;;;;;;;17.83;12.20;;;10.70;99.90;;;;;;5064736;28;20207;-64
2021/12/12 13:23:55;;;;;;;16.40;12.23;;;10.80;99.90;;;;;;5076440;28;20208;-64
2021/12/12 13:26:47;;;;;;;28.33;19.50;;;10.80;99.90;;;;;;5063783;28;20195;-64
2021/12/12 13:29:25;;;;;;;18.23;13.10;;;10.80;99.90;;;;;;5061071;28;20245;-64
2021/12/12 13:32:04;;;;;;;18.00;12.97;;;10.90;99.90;;;;;;5066393;28;20208;-64
2021/12/12 13:34:38;;;;;;;15.80;11.43;;;10.90;99.90;;;;;;5063685;28;20224;-64